Time;durP1;ratioP1;P1;durP2;ratioP2;P2;SDS_P1;SDS_P2;PMS_P1;PMS_P2;Temp;Humidity;BMP_temperature;BMP_pressure;BME280_temperature;BME280_humidity;BME280_pressure;Samples;Min_cycle;Max_cycle;Signal;HPM_P1;HPM_P2
2024/03/19 00:01:16;;;;;;;2.70;1.42;;;;;;;20.82;43.25;101558.03;2381201;73;49695;-80
2024/03/19 00:04:18;;;;;;;4.90;1.87;;;;;;;20.82;43.29;101564.77;2381705;73;50730;-79
2024/03/19 00:07:20;;;;;;;6.50;1.72;;;;;;;20.82;43.25;101559.38;2418163;73;50251;-80
2024/03/19 00:10:22;;;;;;;3.92;1.75;;;;;;;20.82;43.28;101555.86;2381259;73;50062;-79
2024/03/19 00:13:24;;;;;;;5.10;1.70;;;;;;;20.81;43.28;101556.89;2417905;73;50695;-80
2024/03/19 00:16:27;;;;;;;4.67;1.60;;;;;;;20.81;43.29;101560.92;2418239;73;51495;-80
2024/03/19 00:19:29;;;;;;;3.58;1.60;;;;;;;20.81;43.28;101555.54;2418388;73;51472;-79
2024/03/19 00:22:32;;;;;;;4.75;2.00;;;;;;;20.81;43.25;101550.16;2418255;73;50736;-79
2024/03/19 00:25:35;;;;;;;2.42;1.17;;;;;;;20.81;43.28;101548.81;2367022;74;51045;-79
2024/03/19 00:28:38;;;;;;;4.85;1.77;;;;;;;20.80;43.20;101560.57;2382282;74;50438;-79
2024/03/19 00:31:41;;;;;;;4.42;1.72;;;;;;;20.80;43.25;101555.19;2382464;73;51469;-79
2024/03/19 00:34:43;;;;;;;4.10;1.90;;;;;;;20.81;43.20;101562.27;2344333;74;50086;-79
2024/03/19 00:37:45;;;;;;;3.25;1.40;;;;;;;20.79;43.22;101558.39;2382220;74;50405;-79
2024/03/19 00:40:47;;;;;;;3.35;1.60;;;;;;;20.80;43.26;101560.57;2382004;73;51596;-80
2024/03/19 00:43:50;;;;;;;2.62;1.57;;;;;;;20.80;43.26;101561.91;2381986;73;50395;-79
2024/03/19 00:46:54;;;;;;;4.20;1.70;;;;;;;20.80;43.28;101556.53;2344230;74;50395;-79
2024/03/19 00:49:56;;;;;;;4.05;1.60;;;;;;;20.79;43.30;101557.56;2345284;74;22474;-80
2024/03/19 00:52:58;;;;;;;1.98;1.40;;;;;;;20.79;43.33;101554.88;2344417;74;51566;-79
2024/03/19 00:56:01;;;;;;;3.33;1.45;;;;;;;20.79;43.30;101552.19;2382107;74;50661;-79
2024/03/19 00:59:04;;;;;;;2.95;1.45;;;;;;;20.79;43.30;101559.73;2344118;74;50837;-79
2024/03/19 01:02:10;;;;;;;4.10;1.40;;;;;;;20.79;43.32;101558.39;2344430;74;50968;-79
2024/03/19 01:05:11;;;;;;;6.70;1.57;;;;;;;20.79;43.32;101555.70;2381419;74;22317;-80
2024/03/19 01:08:13;;;;;;;5.92;1.90;;;;;;;20.79;43.35;101544.95;2344755;74;51574;-80
2024/03/19 01:11:15;;;;;;;3.95;1.80;;;;;;;20.80;43.38;101548.47;2382204;74;51410;-79
2024/03/19 01:14:17;;;;;;;2.70;1.50;;;;;;;20.79;43.40;101545.45;2317808;74;51072;-80
2024/03/19 01:17:19;;;;;;;2.50;1.40;;;;;;;20.79;43.43;101538.73;2382153;74;50379;-80
2024/03/19 01:20:21;;;;;;;2.58;1.37;;;;;;;20.79;43.38;101538.73;2382013;74;50274;-80
2024/03/19 01:23:24;;;;;;;2.47;1.40;;;;;;;20.78;43.35;101532.52;2344205;74;50076;-80
2024/03/19 01:26:26;;;;;;;4.72;1.32;;;;;;;20.78;43.36;101546.45;2344021;74;50259;-80
2024/03/19 01:29:29;;;;;;;4.12;1.60;;;;;;;20.78;43.33;101535.69;2382146;74;51465;-80
2024/03/19 01:32:31;;;;;;;3.20;1.50;;;;;;;20.78;43.31;101533.00;2382113;74;50419;-80
2024/03/19 01:35:33;;;;;;;3.95;1.55;;;;;;;20.78;43.36;101538.38;2317955;74;50671;-80
2024/03/19 01:38:37;;;;;;;3.87;1.27;;;;;;;20.76;43.35;101537.23;2317352;74;51749;-79
2024/03/19 01:41:39;;;;;;;2.90;1.50;;;;;;;20.78;43.33;101537.04;2381856;73;50831;-79
2024/03/19 01:44:42;;;;;;;3.30;1.40;;;;;;;20.78;43.34;101542.42;2382013;74;50943;-79
2024/03/19 01:47:44;;;;;;;3.40;1.60;;;;;;;20.76;43.35;101537.23;2344136;74;50966;-79
2024/03/19 01:50:46;;;;;;;2.85;1.50;;;;;;;20.78;43.30;101543.77;2343985;74;49864;-79
2024/03/19 01:53:50;;;;;;;5.12;1.67;;;;;;;20.76;43.27;101539.92;2382062;74;51577;-79
2024/03/19 01:56:52;;;;;;;3.42;1.50;;;;;;;20.76;43.28;101535.05;2380714;74;50267;-80
2024/03/19 01:59:55;;;;;;;2.92;1.62;;;;;;;20.76;43.25;101544.47;2382286;74;50437;-80
2024/03/19 02:02:57;;;;;;;2.47;1.75;;;;;;;20.76;43.27;101549.34;2344266;74;49558;-80
2024/03/19 02:05:59;;;;;;;3.62;1.57;;;;;;;20.76;43.26;101543.13;2382099;74;49918;-80
2024/03/19 02:09:14;;;;;;;2.22;1.40;;;;;;;20.76;43.27;101540.44;2344114;74;49592;-80
2024/03/19 02:12:09;;;;;;;2.45;1.60;;;;;;;20.75;43.24;101548.98;2343054;74;22482;-80
2024/03/19 02:15:11;;;;;;;4.22;1.30;;;;;;;20.75;43.27;101536.88;2381975;74;51403;-80
2024/03/19 02:18:14;;;;;;;1.98;1.32;;;;;;;20.75;43.33;101542.78;2382221;74;50420;-80
2024/03/19 02:21:16;;;;;;;2.65;1.40;;;;;;;20.75;43.26;101541.43;2344252;74;50710;-79
2024/03/19 02:24:19;;;;;;;4.17;1.65;;;;;;;20.75;43.32;101541.43;2382122;74;50780;-79
2024/03/19 02:27:21;;;;;;;2.52;1.47;;;;;;;20.76;43.29;101537.75;2344030;74;50176;-79
2024/03/19 02:30:23;;;;;;;2.65;1.20;;;;;;;20.75;43.32;101532.02;2344387;74;50707;-80
2024/03/19 02:33:26;;;;;;;2.02;1.20;;;;;;;20.75;43.34;101540.92;2382062;74;50838;-80
2024/03/19 02:36:28;;;;;;;4.95;1.57;;;;;;;20.75;43.34;101532.02;2343985;74;50085;-79
2024/03/19 02:39:30;;;;;;;3.58;1.50;;;;;;;20.75;43.31;101528.81;2344072;74;51358;-79
2024/03/19 02:42:35;;;;;;;2.55;1.40;;;;;;;20.76;43.37;101528.33;2344070;74;51498;-79
2024/03/19 02:45:37;;;;;;;3.08;1.52;;;;;;;20.76;43.40;101522.95;2381899;74;50942;-81
2024/03/19 02:48:40;;;;;;;2.95;1.60;;;;;;;20.75;43.33;101518.05;2381724;74;50408;-79
2024/03/19 02:51:42;;;;;;;2.83;1.60;;;;;;;20.76;43.38;101518.92;2317664;74;50911;-79
2024/03/19 02:54:44;;;;;;;3.17;1.50;;;;;;;20.76;43.37;101520.27;2381756;74;50391;-79
2024/03/19 02:57:46;;;;;;;5.37;1.50;;;;;;;20.76;43.36;101513.54;2381635;74;51505;-79
2024/03/19 03:00:52;;;;;;;2.77;1.50;;;;;;;20.75;43.38;101515.37;2343927;74;50118;-79
2024/03/19 03:03:54;;;;;;;3.15;1.30;;;;;;;20.76;43.44;101526.47;2382218;74;22297;-81
2024/03/19 03:06:56;;;;;;;2.22;1.30;;;;;;;20.75;43.35;101526.13;2344057;74;50775;-79
2024/03/19 03:09:58;;;;;;;3.70;1.65;;;;;;;20.75;43.23;101524.78;2381938;74;51526;-80
2024/03/19 03:13:00;;;;;;;1.98;1.30;;;;;;;20.75;43.32;101522.09;2382149;73;50458;-79
2024/03/19 03:16:03;;;;;;;2.65;1.82;;;;;;;20.75;43.36;101530.67;2344178;74;49218;-81
2024/03/19 03:19:05;;;;;;;3.65;1.52;;;;;;;20.75;43.34;101531.50;2344617;74;51557;-79
2024/03/19 03:22:07;;;;;;;2.30;1.40;;;;;;;20.75;43.25;101530.67;2381905;74;51499;-80
2024/03/19 03:25:11;;;;;;;2.75;1.40;;;;;;;20.75;43.17;101527.47;2344131;74;50898;-80
2024/03/19 03:28:13;;;;;;;2.08;1.52;;;;;;;20.74;43.29;101522.28;2345129;74;50773;-80
2024/03/19 03:31:16;;;;;;;3.58;1.50;;;;;;;20.74;43.16;101520.94;2382269;74;51131;-79
2024/03/19 03:34:18;;;;;;;2.25;1.50;;;;;;;20.73;43.25;101517.42;2344396;74;50714;-79
2024/03/19 03:37:21;;;;;;;3.15;1.12;;;;;;;20.73;43.14;101525.48;2382151;74;51208;-80
2024/03/19 03:40:24;;;;;;;2.70;1.72;;;;;;;20.73;43.18;101531.34;2344150;74;50955;-80
2024/03/19 03:43:26;;;;;;;2.80;1.42;;;;;;;20.72;43.13;101533.20;2344365;74;50950;-81
2024/03/19 03:46:28;;;;;;;3.55;1.60;;;;;;;20.73;43.17;101531.34;2381758;74;50317;-80
2024/03/19 03:49:30;;;;;;;6.45;1.62;;;;;;;20.73;43.15;101524.63;2343890;74;50057;-80
2024/03/19 03:52:32;;;;;;;3.42;1.50;;;;;;;20.74;43.19;101533.05;2344152;74;50556;-80
2024/03/19 03:55:35;;;;;;;1.82;1.27;;;;;;;20.72;43.12;101532.37;2382132;74;50712;-80
2024/03/19 03:58:37;;;;;;;3.35;1.40;;;;;;;20.72;43.13;101539.09;2344455;74;50987;-80
2024/03/19 04:01:39;;;;;;;2.70;1.50;;;;;;;20.71;43.09;101541.47;2382182;74;50802;-79
2024/03/19 04:04:41;;;;;;;2.92;1.42;;;;;;;20.72;43.14;101547.17;2343941;74;52542;-80
2024/03/19 04:07:44;;;;;;;2.55;1.45;;;;;;;20.71;43.14;101544.16;2382045;74;50720;-79
2024/03/19 04:10:47;;;;;;;2.22;1.40;;;;;;;20.71;43.23;101542.30;2344190;74;51586;-80
2024/03/19 04:13:49;;;;;;;2.27;1.55;;;;;;;20.71;43.21;101546.34;2344228;74;49568;-79
2024/03/19 04:16:51;;;;;;;3.72;1.47;;;;;;;20.71;43.31;101546.34;2381982;74;50496;-80
2024/03/19 04:19:54;;;;;;;2.40;1.40;;;;;;;20.72;43.25;101547.17;2382058;74;50501;-80
2024/03/19 04:22:56;;;;;;;2.35;1.57;;;;;;;20.73;43.17;101551.52;2344513;74;51434;-81
2024/03/19 04:25:58;;;;;;;2.42;1.52;;;;;;;20.73;43.20;101554.21;2382253;74;50710;-80
2024/03/19 04:29:00;;;;;;;2.52;1.60;;;;;;;20.73;43.05;101552.38;2382347;73;51406;-79
2024/03/19 04:32:03;;;;;;;2.25;1.50;;;;;;;20.73;43.04;101563.14;2382207;74;50584;-80
2024/03/19 04:35:05;;;;;;;1.80;1.22;;;;;;;20.73;42.81;101555.55;2317764;74;51541;-80
2024/03/19 04:38:08;;;;;;;2.95;1.40;;;;;;;20.73;42.85;101564.48;2292896;74;51718;-81
2024/03/19 04:41:10;;;;;;;3.55;1.60;;;;;;;20.73;42.92;101560.94;2344730;74;50281;-79
2024/03/19 04:44:12;;;;;;;3.27;1.52;;;;;;;20.72;42.82;101565.48;2344566;74;50705;-80
2024/03/19 04:47:19;;;;;;;2.80;1.35;;;;;;;20.73;42.81;101565.83;2382174;74;51840;-82
2024/03/19 04:50:23;;;;;;;2.72;1.65;;;;;;;20.74;42.94;101559.94;2382260;74;50726;-79
2024/03/19 04:53:25;;;;;;;1.92;1.50;;;;;;;20.73;43.00;101571.69;2382345;74;23453;-80
2024/03/19 04:56:27;;;;;;;2.55;1.50;;;;;;;20.72;43.05;101568.69;2344661;74;50249;-80
2024/03/19 04:59:29;;;;;;;1.95;1.40;;;;;;;20.73;43.08;101577.94;2382604;74;50504;-80
2024/03/19 05:02:32;;;;;;;1.70;1.20;;;;;;;20.73;43.08;101570.34;2318101;74;49879;-80
2024/03/19 05:05:34;;;;;;;1.82;1.62;;;;;;;20.73;43.06;101567.17;2382055;74;50378;-80
2024/03/19 05:08:40;;;;;;;1.90;1.42;;;;;;;20.73;43.04;101567.66;2317989;74;51522;-81
2024/03/19 05:11:41;;;;;;;;;;;;;;;20.72;43.09;101559.27;2347163;74;49223;-80
2024/03/19 05:14:44;;;;;;;2.65;1.65;;;;;;;20.72;43.03;101568.17;2382326;74;50349;-80
2024/03/19 05:17:46;;;;;;;2.27;1.30;;;;;;;20.72;43.03;101563.30;2382009;74;50706;-79
2024/03/19 05:20:49;;;;;;;2.87;1.40;;;;;;;20.72;43.11;101568.69;2344330;74;51714;-80
2024/03/19 05:23:51;;;;;;;1.55;1.20;;;;;;;20.71;43.15;101561.12;2344469;74;51528;-80
2024/03/19 05:26:53;;;;;;;2.67;1.57;;;;;;;20.72;43.15;101561.95;2382089;74;50746;-80
2024/03/19 05:29:55;;;;;;;2.95;1.47;;;;;;;20.70;43.17;101548.67;2344396;74;49337;-80
2024/03/19 05:32:57;;;;;;;3.58;1.60;;;;;;;20.70;43.18;101550.02;2382193;74;50207;-81
2024/03/19 05:36:00;;;;;;;3.77;1.65;;;;;;;20.70;43.11;101548.67;2382045;74;50406;-81
2024/03/19 05:39:08;;;;;;;2.98;1.60;;;;;;;20.70;43.16;101555.39;2382382;74;51431;-80
2024/03/19 05:42:06;;;;;;;2.22;1.82;;;;;;;20.70;43.01;101545.98;2381372;74;22404;-80
2024/03/19 05:45:08;;;;;;;1.98;1.40;;;;;;;20.70;43.11;101550.53;2293163;74;50862;-80
2024/03/19 05:48:11;;;;;;;2.62;1.50;;;;;;;20.70;42.94;101560.78;2318709;74;51462;-80
2024/03/19 05:51:13;;;;;;;3.02;1.45;;;;;;;20.70;43.05;101554.05;2382458;74;51516;-80
2024/03/19 05:54:15;;;;;;;11.55;1.90;;;;;;;20.70;43.10;101555.91;2317938;74;51674;-79
2024/03/19 05:57:19;;;;;;;6.03;1.67;;;;;;;20.70;42.94;101556.74;2344307;74;51448;-80
2024/03/19 06:00:22;;;;;;;6.45;1.80;;;;;;;20.71;42.99;101557.09;2381429;74;51545;-78
2024/03/19 06:03:24;;;;;;;3.92;1.65;;;;;;;20.72;43.15;101563.30;2317755;74;49968;-79
2024/03/19 06:06:26;;;;;;;8.15;2.10;;;;;;;20.73;43.31;101566.31;2382076;74;51511;-79
2024/03/19 06:09:32;;;;;;;5.47;1.80;;;;;;;20.74;43.37;101567.49;2317795;74;49598;-79
2024/03/19 06:12:34;;;;;;;6.25;1.95;;;;;;;20.76;43.42;101576.75;2415232;73;50282;-79
2024/03/19 06:15:36;;;;;;;6.42;2.12;;;;;;;20.78;43.84;101573.34;2383280;72;50381;-81
2024/03/19 06:18:38;;;;;;;9.33;2.42;;;;;;;20.78;43.76;101577.38;2428377;72;50006;-79
2024/03/19 06:21:40;;;;;;;11.22;2.33;;;;;;;20.77;44.04;101582.44;2469236;72;51422;-80
2024/03/19 06:24:43;;;;;;;13.00;2.60;;;;;;;20.79;44.37;101591.19;2469572;72;50382;-81
2024/03/19 06:27:45;;;;;;;19.02;2.98;;;;;;;20.80;44.21;101587.47;2429002;72;50298;-81
2024/03/19 06:30:47;;;;;;;14.68;2.50;;;;;;;20.78;44.27;101582.77;2469111;72;50672;-79
2024/03/19 06:33:49;;;;;;;8.68;2.67;;;;;;;20.80;44.55;101581.58;2428361;72;51053;-80
2024/03/19 06:36:52;;;;;;;16.52;2.65;;;;;;;20.82;44.54;101589.48;2469306;72;51551;-79
2024/03/19 06:39:55;;;;;;;11.95;2.37;;;;;;;20.87;44.71;101597.87;2469156;72;50494;-79
2024/03/19 06:42:57;;;;;;;12.30;2.52;;;;;;;20.86;44.70;101599.73;2428327;72;51075;-80
2024/03/19 06:46:00;;;;;;;17.55;2.72;;;;;;;20.86;44.65;101605.63;2454861;72;50252;-80
2024/03/19 06:49:02;;;;;;;10.75;2.12;;;;;;;20.87;44.65;101614.01;2424569;73;50230;-80
2024/03/19 06:52:04;;;;;;;12.13;2.90;;;;;;;20.87;44.65;101619.39;2385497;73;50818;-80
2024/03/19 06:55:07;;;;;;;15.13;3.30;;;;;;;20.87;44.58;101640.91;2358259;73;51432;-79
2024/03/19 06:58:09;;;;;;;22.17;3.02;;;;;;;20.87;44.50;101632.84;2384864;73;49354;-79
2024/03/19 07:01:11;;;;;;;13.98;3.47;;;;;;;20.87;44.64;101623.42;2424450;73;50673;-80
2024/03/19 07:04:14;;;;;;;12.45;2.83;;;;;;;20.86;44.61;101630.66;2424637;73;50238;-80
2024/03/19 07:07:17;;;;;;;22.60;3.50;;;;;;;20.88;44.59;101635.37;2385418;73;50165;-81
2024/03/19 07:10:20;;;;;;;13.10;2.70;;;;;;;20.88;44.50;101635.37;2385723;73;51442;-79
2024/03/19 07:13:22;;;;;;;10.90;2.45;;;;;;;20.89;44.58;101632.16;2358654;73;50030;-78
2024/03/19 07:16:25;;;;;;;14.35;3.33;;;;;;;20.88;44.89;101631.81;2425385;73;50411;-79
2024/03/19 07:19:27;;;;;;;16.77;3.27;;;;;;;20.88;44.92;101628.64;2424700;73;50752;-80
2024/03/19 07:22:29;;;;;;;13.68;3.33;;;;;;;20.90;44.94;101634.34;2389404;72;50985;-81
2024/03/19 07:25:32;;;;;;;10.35;2.72;;;;;;;20.91;44.96;101630.63;2469084;72;50786;-79
2024/03/19 07:28:35;;;;;;;17.65;3.00;;;;;;;20.92;44.98;101648.47;2468896;72;51557;-80
2024/03/19 07:31:40;;;;;;;11.33;2.87;;;;;;;20.93;44.99;101650.13;2428301;72;50937;-80
2024/03/19 07:34:41;;;;;;;13.88;3.17;;;;;;;20.92;44.87;101641.23;2469070;72;22372;-78
2024/03/19 07:37:43;;;;;;;12.13;3.60;;;;;;;20.93;44.73;101627.27;2468983;72;51639;-79
2024/03/19 07:40:46;;;;;;;14.93;3.22;;;;;;;20.93;44.63;101642.89;2428681;72;50356;-81
2024/03/19 07:43:48;;;;;;;16.17;3.15;;;;;;;20.93;44.57;101642.05;2428295;72;51495;-79
2024/03/19 07:46:51;;;;;;;11.45;2.95;;;;;;;20.93;44.55;101631.30;2427987;72;50995;-79
2024/03/19 07:49:53;;;;;;;11.57;2.80;;;;;;;20.94;44.52;101628.95;2468920;72;51553;-77
2024/03/19 07:52:56;;;;;;;13.83;3.30;;;;;;;20.94;44.47;101636.52;2468674;72;51491;-80
2024/03/19 07:55:58;;;;;;;16.57;3.12;;;;;;;20.95;44.45;101641.38;2427786;72;52542;-79
2024/03/19 07:59:00;;;;;;;11.63;2.87;;;;;;;20.95;44.41;101650.80;2428224;72;51602;-79
2024/03/19 08:02:04;;;;;;;7.35;3.30;;;;;;;20.96;44.35;101645.26;2428349;72;51543;-80
2024/03/19 08:05:07;;;;;;;11.68;3.17;;;;;;;20.96;44.34;101643.91;2400828;72;50385;-80
2024/03/19 08:08:10;;;;;;;13.62;2.98;;;;;;;20.97;44.28;101639.36;2400704;72;51540;-79
2024/03/19 08:11:12;;;;;;;10.90;2.90;;;;;;;20.97;44.26;101649.61;2427785;72;51251;-80
2024/03/19 08:14:14;;;;;;;11.53;3.37;;;;;;;20.98;44.22;101652.62;2428418;72;50086;-79
2024/03/19 08:17:18;;;;;;;10.80;2.87;;;;;;;20.98;44.18;101652.62;2468871;72;50687;-79
2024/03/19 08:20:20;;;;;;;12.05;3.20;;;;;;;20.99;44.12;101660.19;2428096;72;49645;-81
2024/03/19 08:23:22;;;;;;;9.90;3.12;;;;;;;20.98;44.06;101655.31;2428708;72;51507;-79
2024/03/19 08:26:24;;;;;;;8.93;3.10;;;;;;;20.99;44.05;101655.66;2428012;72;50320;-80
2024/03/19 08:29:26;;;;;;;7.33;2.62;;;;;;;21.00;44.00;101660.53;2427933;72;50365;-79
2024/03/19 08:32:29;;;;;;;10.20;3.37;;;;;;;21.00;44.01;101660.53;2468722;72;50738;-80
2024/03/19 08:35:31;;;;;;;9.90;3.17;;;;;;;21.00;43.96;101663.23;2428175;72;50976;-79
2024/03/19 08:38:34;;;;;;;11.12;3.95;;;;;;;21.01;43.87;101660.34;2469084;72;50626;-79
2024/03/19 08:41:36;;;;;;;12.70;3.60;;;;;;;21.04;43.83;101668.57;2468985;72;52416;-79
2024/03/19 08:44:38;;;;;;;8.58;2.87;;;;;;;21.02;43.72;101672.80;2428117;72;49655;-79
2024/03/19 08:47:41;;;;;;;6.70;2.72;;;;;;;21.06;43.68;101671.42;2469061;72;50110;-80
2024/03/19 08:50:44;;;;;;;10.18;3.08;;;;;;;21.08;43.59;101679.33;2469288;72;51508;-79
2024/03/19 08:53:47;;;;;;;6.92;3.30;;;;;;;21.08;43.46;101674.78;2428814;72;50738;-80
2024/03/19 08:56:50;;;;;;;8.80;3.17;;;;;;;21.10;43.38;101680.84;2469254;72;50273;-80
2024/03/19 08:59:52;;;;;;;6.75;3.20;;;;;;;21.11;43.23;101662.83;2428255;72;51647;-78
2024/03/19 09:02:54;;;;;;;7.40;3.15;;;;;;;21.10;43.16;101675.45;2428620;72;50402;-78
2024/03/19 09:06:00;;;;;;;6.50;2.58;;;;;;;21.14;43.10;101661.13;2469023;72;50699;-79
2024/03/19 09:09:02;;;;;;;8.28;2.90;;;;;;;21.17;42.95;101668.02;2428505;72;52617;-79
2024/03/19 09:12:05;;;;;;;7.62;3.20;;;;;;;21.18;42.87;101668.36;2469104;72;51412;-79
2024/03/19 09:15:11;;;;;;;12.35;2.92;;;;;;;21.21;42.80;101677.42;2428401;72;51536;-80
2024/03/19 09:18:12;;;;;;;6.70;2.90;;;;;;;21.21;42.79;101666.66;2401633;72;22737;-80
2024/03/19 09:21:14;;;;;;;7.70;3.00;;;;;;;21.21;42.79;101668.00;2469163;72;52237;-79
2024/03/19 09:24:17;;;;;;;7.15;2.98;;;;;;;21.24;42.80;101667.65;2428354;72;49932;-80
2024/03/19 09:27:19;;;;;;;6.22;2.75;;;;;;;21.25;42.84;101663.96;2469115;72;51418;-79
2024/03/19 09:30:21;;;;;;;4.60;2.42;;;;;;;21.25;42.83;101655.38;2469088;72;50717;-79
2024/03/19 09:33:23;;;;;;;5.67;2.75;;;;;;;21.27;42.79;101653.83;2428224;72;50976;-79
2024/03/19 09:36:26;;;;;;;11.10;3.08;;;;;;;21.28;42.81;101654.18;2468932;72;51542;-79
2024/03/19 09:39:28;;;;;;;6.10;3.10;;;;;;;21.29;42.78;101644.56;2469040;72;51480;-80
2024/03/19 09:42:30;;;;;;;5.42;2.98;;;;;;;21.31;42.77;101647.09;2428659;72;51454;-79
2024/03/19 09:45:32;;;;;;;6.65;2.77;;;;;;;21.31;42.78;101643.05;2469382;72;51540;-80
2024/03/19 09:48:35;;;;;;;5.10;2.83;;;;;;;21.31;42.78;101643.88;2428899;72;50968;-79
2024/03/19 09:51:38;;;;;;;6.72;2.77;;;;;;;21.34;42.73;101635.96;2428865;72;51463;-80
2024/03/19 09:54:40;;;;;;;5.05;2.60;;;;;;;21.35;42.72;101640.35;2469394;72;49966;-78
2024/03/19 09:57:46;;;;;;;7.85;2.95;;;;;;;21.37;42.79;101641.50;2400168;72;52558;-79
2024/03/19 10:00:50;;;;;;;5.58;2.72;;;;;;;21.39;42.75;101638.99;2429601;72;50767;-79
2024/03/19 10:03:54;;;;;;;7.92;3.05;;;;;;;21.40;42.69;101644.73;2469214;72;51555;-80
2024/03/19 10:06:56;;;;;;;7.95;3.00;;;;;;;21.41;42.68;101638.31;2468927;72;50093;-79
2024/03/19 10:09:58;;;;;;;3.92;2.37;;;;;;;21.42;42.66;101633.76;2468852;72;50379;-80
2024/03/19 10:13:03;;;;;;;6.17;2.55;;;;;;;21.43;42.66;101633.59;2428169;72;50130;-80
2024/03/19 10:16:06;;;;;;;4.80;2.47;;;;;;;21.45;42.64;101632.91;2429140;72;50318;-79
2024/03/19 10:19:10;;;;;;;7.45;2.70;;;;;;;21.46;42.60;101625.16;2469146;72;50364;-79
2024/03/19 10:22:12;;;;;;;4.92;2.90;;;;;;;21.47;42.56;101631.38;2457989;72;50987;-80
2024/03/19 10:25:15;;;;;;;6.05;2.60;;;;;;;21.49;42.65;101629.34;2469091;72;51466;-79
2024/03/19 10:28:19;;;;;;;3.42;2.22;;;;;;;21.48;42.55;101631.72;2469078;72;51637;-79
2024/03/19 10:31:21;;;;;;;6.22;2.65;;;;;;;21.50;42.57;101618.89;2428986;72;50186;-79
2024/03/19 10:34:24;;;;;;;5.83;2.30;;;;;;;21.50;42.58;101621.10;2468987;72;50716;-79
2024/03/19 10:37:27;;;;;;;7.42;2.22;;;;;;;21.52;42.53;101616.86;2428078;72;49642;-79
2024/03/19 10:40:29;;;;;;;5.05;2.58;;;;;;;21.53;42.58;101619.39;2469045;72;50677;-79
2024/03/19 10:43:32;;;;;;;4.85;2.30;;;;;;;21.55;42.52;101623.75;2468865;72;50395;-79
2024/03/19 10:46:34;;;;;;;4.62;2.50;;;;;;;21.55;42.49;101616.50;2427960;72;51047;-80
2024/03/19 10:49:37;;;;;;;4.85;2.47;;;;;;;21.58;42.38;101625.59;2469257;72;50272;-80
2024/03/19 10:52:40;;;;;;;5.00;2.70;;;;;;;21.61;42.39;101613.63;2469055;72;51518;-79
2024/03/19 10:55:43;;;;;;;4.87;2.20;;;;;;;21.59;42.41;101615.65;2468786;72;50008;-79
2024/03/19 10:58:48;;;;;;;4.40;2.20;;;;;;;21.60;42.31;101608.72;2469051;72;51598;-79
2024/03/19 11:01:58;;;;;;;4.50;2.35;;;;;;;21.63;42.28;101609.73;2469425;72;22340;-79
2024/03/19 11:04:57;;;;;;;5.95;2.62;;;;;;;21.63;42.30;101608.87;2428070;72;22576;-80
2024/03/19 11:07:59;;;;;;;3.85;2.22;;;;;;;21.64;42.26;101613.26;2467302;72;48920;-79
2024/03/19 11:11:08;;;;;;;3.67;2.02;;;;;;;21.65;42.22;101608.19;2428323;72;51990;-79
2024/03/19 11:14:15;;;;;;;4.05;2.50;;;;;;;21.65;42.21;101598.76;2429576;72;51974;-79
2024/03/19 11:17:18;;;;;;;5.33;2.52;;;;;;;21.67;42.21;101612.89;2468620;72;51616;-79
2024/03/19 11:20:21;;;;;;;5.37;2.45;;;;;;;21.68;42.21;101608.69;2468926;72;51421;-80
2024/03/19 11:23:25;;;;;;;5.08;2.40;;;;;;;21.69;42.09;101606.30;2468843;72;50672;-79
2024/03/19 11:26:27;;;;;;;4.08;2.52;;;;;;;21.68;42.20;101601.95;2428535;72;50129;-79
2024/03/19 11:29:39;;;;;;;4.42;2.08;;;;;;;21.68;42.15;101599.26;2428367;72;51470;-79
2024/03/19 11:32:42;;;;;;;4.37;2.17;;;;;;;21.71;42.10;101599.41;2429622;72;50703;-78
2024/03/19 11:35:49;;;;;;;3.00;2.12;;;;;;;21.70;42.06;101600.41;2372542;72;49665;-80
2024/03/19 11:38:51;;;;;;;7.40;2.12;;;;;;;21.71;42.12;101596.71;2428554;72;50284;-80
2024/03/19 11:41:54;;;;;;;3.72;2.08;;;;;;;21.70;42.12;101597.71;2468870;72;50744;-79
2024/03/19 11:44:56;;;;;;;3.80;2.15;;;;;;;21.73;41.92;101596.86;2428284;72;51512;-80
2024/03/19 11:47:59;;;;;;;3.70;2.02;;;;;;;21.73;41.94;101590.61;2468937;72;51517;-79
2024/03/19 11:51:01;;;;;;;3.95;2.00;;;;;;;21.73;41.86;101590.61;2399860;72;51270;-79
2024/03/19 11:54:03;;;;;;;5.03;2.10;;;;;;;21.74;41.82;101580.18;2428538;72;50152;-79
2024/03/19 11:57:06;;;;;;;4.37;2.45;;;;;;;21.74;41.90;101577.48;2428784;72;50788;-80
2024/03/19 12:00:12;;;;;;;6.67;2.42;;;;;;;21.74;41.89;101577.48;2428557;72;52524;-79
2024/03/19 12:03:16;;;;;;;3.12;2.10;;;;;;;21.73;41.89;101579.83;2429775;72;51562;-78
2024/03/19 12:06:18;;;;;;;3.15;2.10;;;;;;;21.74;41.75;101577.48;2469020;72;51639;-81
2024/03/19 12:09:23;;;;;;;3.27;2.00;;;;;;;21.73;41.85;101565.87;2469281;72;50678;-80
2024/03/19 12:12:28;;;;;;;4.35;2.20;;;;;;;21.75;41.73;101565.16;2428433;72;51555;-80
2024/03/19 12:15:30;;;;;;;3.58;2.25;;;;;;;21.75;41.66;101571.89;2428643;72;50092;-79
2024/03/19 12:18:32;;;;;;;3.47;2.20;;;;;;;21.75;41.46;101571.06;2469185;72;51541;-79
2024/03/19 12:21:43;;;;;;;3.25;2.33;;;;;;;21.74;41.35;101571.58;2428434;72;50617;-79
2024/03/19 12:24:45;;;;;;;3.47;2.00;;;;;;;21.75;41.29;101560.29;2428251;72;52725;-80
2024/03/19 12:27:47;;;;;;;3.42;2.25;;;;;;;21.75;41.26;101561.64;2428406;72;50704;-79
2024/03/19 12:30:49;;;;;;;3.80;2.40;;;;;;;21.75;41.14;101561.64;2469243;72;51469;-80
2024/03/19 12:34:03;;;;;;;3.52;2.00;;;;;;;21.75;41.09;101558.42;2428718;72;50700;-78
2024/03/19 12:36:55;;;;;;;3.15;1.92;;;;;;;21.76;41.10;101549.86;2465969;72;22542;-78
2024/03/19 12:39:58;;;;;;;3.98;2.08;;;;;;;21.74;41.06;101543.30;2427834;72;51702;-79
2024/03/19 12:43:00;;;;;;;3.70;2.30;;;;;;;21.75;41.08;101545.47;2468889;72;51433;-79
2024/03/19 12:46:02;;;;;;;2.42;2.08;;;;;;;21.75;41.13;101544.95;2428062;72;50742;-80
2024/03/19 12:49:05;;;;;;;3.42;2.22;;;;;;;21.75;41.10;101530.14;2428176;72;52338;-79
2024/03/19 12:52:08;;;;;;;2.65;2.05;;;;;;;21.74;41.15;101534.38;2468915;72;50683;-79
2024/03/19 12:55:10;;;;;;;3.15;2.08;;;;;;;21.75;41.23;101532.00;2468841;72;50369;-79
2024/03/19 12:58:12;;;;;;;3.25;2.20;;;;;;;21.73;41.26;101532.20;2400547;72;50457;-79
2024/03/19 13:01:16;;;;;;;2.45;1.92;;;;;;;21.75;41.15;101535.53;2428655;72;50114;-79
2024/03/19 13:04:18;;;;;;;3.90;2.20;;;;;;;21.74;41.15;101527.65;2428523;72;52853;-80
2024/03/19 13:07:20;;;;;;;2.30;1.98;;;;;;;21.74;41.08;101524.95;2428797;72;51447;-79
2024/03/19 13:10:22;;;;;;;3.30;2.00;;;;;;;21.74;41.14;101524.44;2469535;72;50295;-80
2024/03/19 13:13:24;;;;;;;3.47;2.20;;;;;;;21.72;41.17;101519.73;2428908;72;50128;-80
2024/03/19 13:16:27;;;;;;;3.90;2.17;;;;;;;21.74;41.22;101514.18;2428167;72;51090;-79
2024/03/19 13:19:29;;;;;;;4.30;2.25;;;;;;;21.74;41.23;101517.70;2469051;72;51407;-80
2024/03/19 13:22:32;;;;;;;3.80;2.20;;;;;;;21.74;41.27;101514.18;2469062;72;50326;-80
2024/03/19 13:25:36;;;;;;;2.05;1.85;;;;;;;21.74;41.32;101512.31;2469052;72;51463;-80
2024/03/19 13:28:39;;;;;;;4.15;1.92;;;;;;;21.75;41.13;101507.25;2429420;72;23138;-79
2024/03/19 13:31:42;;;;;;;2.83;2.17;;;;;;;21.77;41.33;101500.86;2428870;72;51584;-79
2024/03/19 13:34:52;;;;;;;2.40;1.87;;;;;;;21.78;41.34;101504.70;2468807;72;50154;-79
2024/03/19 13:37:54;;;;;;;2.80;1.90;;;;;;;21.75;41.43;101491.08;2469056;72;24493;-79
2024/03/19 13:40:56;;;;;;;3.22;2.10;;;;;;;21.75;41.44;101498.33;2468716;72;50710;-78
2024/03/19 13:43:58;;;;;;;2.50;2.15;;;;;;;21.74;41.48;101504.75;2468972;72;51571;-79
2024/03/19 13:47:00;;;;;;;2.95;2.02;;;;;;;21.73;41.47;101486.90;2468950;72;51520;-79
2024/03/19 13:50:03;;;;;;;3.27;2.10;;;;;;;21.71;41.45;101483.58;2428368;72;51499;-78
2024/03/19 13:53:05;;;;;;;2.47;2.02;;;;;;;21.72;41.41;101491.97;2400927;72;50659;-80
2024/03/19 13:56:08;;;;;;;2.85;1.92;;;;;;;21.70;41.48;101492.14;2428314;72;50024;-79
2024/03/19 13:59:10;;;;;;;2.37;1.92;;;;;;;21.70;41.48;101502.09;2401165;72;50302;-80
2024/03/19 14:02:14;;;;;;;3.25;1.95;;;;;;;21.69;41.45;101503.12;2468987;72;50333;-81
2024/03/19 14:05:16;;;;;;;3.52;2.12;;;;;;;21.69;41.47;101499.08;2401214;72;52179;-79
2024/03/19 14:08:18;;;;;;;3.15;1.90;;;;;;;21.68;41.49;101500.08;2468957;72;51216;-79